Time;durP1;ratioP1;P1;durP2;ratioP2;P2;SDS_P1;SDS_P2;PMS_P1;PMS_P2;Temp;Humidity;BMP_temperature;BMP_pressure;BME280_temperature;BME280_humidity;BME280_pressure;Samples;Min_cycle;Max_cycle;Signal;HPM_P1;HPM_P2
2023/01/04 00:01:31;;;;;;;4.28;3.17;;;;;;;3.33;72.42;100344.91;1709740;84;20993;-76
2023/01/04 00:03:58;;;;;;;5.53;3.10;;;;;;;3.36;72.18;100342.53;1739835;82;21029;-76
2023/01/04 00:06:24;;;;;;;9.73;3.60;;;;;;;3.45;72.04;100347.62;1741090;82;20989;-76
2023/01/04 00:08:51;;;;;;;6.03;3.40;;;;;;;3.43;71.88;100350.84;1739561;82;21544;-77
2023/01/04 00:11:21;;;;;;;4.05;3.00;;;;;;;3.38;71.96;100355.56;1709224;82;21156;-75
2023/01/04 00:13:50;;;;;;;5.80;3.60;;;;;;;3.33;71.95;100353.27;1732083;82;21046;-74
2023/01/04 00:16:22;;;;;;;5.70;4.03;;;;;;;3.29;72.00;100353.95;1730606;82;21517;-76
2023/01/04 00:18:50;;;;;;;7.25;3.75;;;;;;;3.27;72.01;100366.34;1733041;82;21016;-76
2023/01/04 00:21:28;;;;;;;5.37;3.58;;;;;;;3.23;71.92;100359.63;1737810;82;21236;-77
2023/01/04 00:23:57;;;;;;;4.60;3.30;;;;;;;3.19;72.01;100363.41;1737108;81;21131;-76
2023/01/04 00:26:29;;;;;;;4.33;2.75;;;;;;;3.30;71.78;100358.27;1734893;81;21062;-71
2023/01/04 00:28:58;;;;;;;5.45;3.60;;;;;;;3.30;71.78;100358.27;1736075;81;21124;-74
2023/01/04 00:31:25;;;;;;;7.35;3.83;;;;;;;3.29;71.88;100360.52;1740143;81;21065;-75
2023/01/04 00:33:56;;;;;;;5.17;3.52;;;;;;;3.26;71.97;100365.13;1737250;81;21474;-76
2023/01/04 00:36:23;;;;;;;5.00;3.12;;;;;;;3.21;71.91;100364.15;1737735;82;21049;-75
2023/01/04 00:39:05;;;;;;;5.40;3.87;;;;;;;3.18;71.97;100372.70;1712048;83;21045;-76
2023/01/04 00:41:19;;;;;;;5.22;3.80;;;;;;;3.13;72.09;100374.34;1732060;82;21027;-74
2023/01/04 00:43:47;;;;;;;5.12;3.33;;;;;;;3.03;72.21;100366.70;1732366;82;21117;-74
2023/01/04 00:46:13;;;;;;;6.58;3.72;;;;;;;3.03;72.21;100366.70;1733845;81;21033;-75
2023/01/04 00:48:40;;;;;;;5.45;4.10;;;;;;;3.03;72.17;100374.58;1735882;82;21220;-75
2023/01/04 00:51:07;;;;;;;3.87;3.00;;;;;;;2.98;72.23;100364.89;1736700;82;21034;-76
2023/01/04 00:53:34;;;;;;;4.42;3.47;;;;;;;3.00;72.19;100373.49;1735930;82;21178;-74
2023/01/04 00:56:00;;;;;;;3.92;2.92;;;;;;;3.11;71.96;100370.95;1721363;81;21097;-74
2023/01/04 00:58:28;;;;;;;6.58;3.45;;;;;;;3.11;71.96;100370.95;1734771;81;21039;-75
2023/01/04 01:00:55;;;;;;;6.28;3.20;;;;;;;3.00;71.98;100364.30;1739251;81;21155;-75
2023/01/04 01:03:21;;;;;;;5.95;3.40;;;;;;;2.95;72.17;100361.98;1733659;80;21057;-76
2023/01/04 01:05:48;;;;;;;4.85;3.10;;;;;;;2.95;72.17;100361.98;1735786;80;21037;-73
2023/01/04 01:08:23;;;;;;;4.95;3.20;;;;;;;2.91;72.22;100360.02;1734199;81;21007;-73
2023/01/04 01:10:51;;;;;;;4.70;3.37;;;;;;;2.86;72.06;100358.20;1743684;82;21062;-73
2023/01/04 01:13:19;;;;;;;4.50;3.30;;;;;;;2.86;72.06;100358.20;1733384;81;21195;-73
2023/01/04 01:15:46;;;;;;;6.08;3.70;;;;;;;2.84;72.25;100360.55;1732279;82;21042;-73
2023/01/04 01:18:14;;;;;;;5.45;3.10;;;;;;;2.78;72.37;100359.17;1708701;83;20957;-74
2023/01/04 01:20:44;;;;;;;4.05;2.90;;;;;;;2.72;72.50;100358.27;1713886;82;21090;-75
2023/01/04 01:23:14;;;;;;;5.08;3.00;;;;;;;2.72;72.50;100358.27;1737255;82;20973;-72
2023/01/04 01:25:41;;;;;;;5.58;3.10;;;;;;;2.73;72.59;100349.47;1738739;82;21854;-73
2023/01/04 01:28:08;;;;;;;4.67;3.15;;;;;;;2.81;72.41;100347.17;1738698;81;21069;-73
2023/01/04 01:30:36;;;;;;;4.10;3.22;;;;;;;2.81;72.41;100347.17;1735016;82;20921;-75
2023/01/04 01:33:04;;;;;;;4.78;2.98;;;;;;;2.77;72.48;100354.05;1723870;82;21294;-72
2023/01/04 01:35:33;;;;;;;4.33;3.08;;;;;;;2.75;72.38;100355.45;1738161;82;20998;-72
2023/01/04 01:38:01;;;;;;;5.22;3.05;;;;;;;2.72;72.37;100349.95;1737168;81;21119;-73
2023/01/04 01:40:29;;;;;;;6.05;3.00;;;;;;;2.68;72.34;100353.70;1737771;82;21013;-73
2023/01/04 01:42:56;;;;;;;4.95;2.77;;;;;;;2.67;72.09;100359.91;1738828;82;21144;-75
2023/01/04 01:45:32;;;;;;;3.55;2.72;;;;;;;2.65;71.94;100359.65;1705183;83;21042;-74
2023/01/04 01:48:06;;;;;;;6.97;3.33;;;;;;;2.65;71.86;100364.41;1703753;84;20999;-73
2023/01/04 01:50:49;;;;;;;6.67;3.45;;;;;;;2.65;71.86;100364.41;1728741;82;21463;-72
2023/01/04 01:53:15;;;;;;;4.50;2.67;;;;;;;2.62;71.94;100359.36;1719770;82;20952;-71
2023/01/04 01:55:44;;;;;;;4.42;2.98;;;;;;;2.62;71.91;100364.61;1734520;82;21039;-73
2023/01/04 01:58:13;;;;;;;6.25;3.35;;;;;;;2.58;72.08;100354.43;1738193;81;21087;-71
2023/01/04 02:00:39;;;;;;;5.65;2.83;;;;;;;2.58;72.08;100354.43;1738599;81;21041;-72
2023/01/04 02:06:21;;;;;;;5.57;2.73;;;;;;;2.60;71.92;100349.92;1856137;77;22466;-71
2023/01/04 02:08:48;;;;;;;4.28;3.15;;;;;;;2.55;71.90;100352.86;1826948;78;21045;-71
2023/01/04 02:11:16;;;;;;;4.42;2.70;;;;;;;2.48;72.11;100349.79;1826984;78;21297;-71
2023/01/04 02:16:43;;;;;;;4.78;2.65;;;;;;;2.44;72.06;100350.10;1828144;78;20914;-72
2023/01/04 02:19:47;;;;;;;4.50;2.62;;;;;;;2.40;72.16;100356.02;1828125;78;20930;-71
2023/01/04 02:22:41;;;;;;;5.70;3.10;;;;;;;2.39;72.11;100356.94;1824531;78;20997;-72
2023/01/04 02:25:28;;;;;;;3.55;3.02;;;;;;;2.35;72.17;100343.66;1799489;78;21096;-72
2023/01/04 02:28:11;;;;;;;5.12;3.05;;;;;;;2.30;72.21;100340.05;1824497;78;20973;-70
2023/01/04 02:30:59;;;;;;;7.45;3.35;;;;;;;2.30;72.30;100337.91;1807944;78;20864;-71
2023/01/04 02:33:31;;;;;;;6.97;3.25;;;;;;;2.27;72.36;100335.47;1795537;78;21014;-72
2023/01/04 02:36:27;;;;;;;3.70;2.90;;;;;;;2.25;72.44;100339.97;1794586;79;21032;-73
2023/01/04 02:38:59;;;;;;;5.40;2.92;;;;;;;2.22;72.52;100333.61;1811595;78;21442;-71
2023/01/04 02:41:40;;;;;;;4.65;2.80;;;;;;;2.17;72.65;100336.54;1782439;78;20983;-73
2023/01/04 02:47:07;;;;;;;4.20;3.17;;;;;;;2.14;72.70;100342.83;1835619;77;20951;-71
2023/01/04 02:52:19;;;;;;;5.22;2.90;;;;;;;2.09;72.85;100343.59;1845676;77;21074;-75
2023/01/04 02:54:47;;;;;;;5.22;2.90;;;;;;;2.09;72.87;100338.34;1822730;78;21002;-72
2023/01/04 02:57:36;;;;;;;4.65;2.30;;;;;;;2.08;72.95;100339.27;1819779;77;21533;-73
2023/01/04 03:00:20;;;;;;;4.30;2.58;;;;;;;2.06;72.95;100334.60;1827187;78;21006;-75
2023/01/04 03:06:17;;;;;;;5.20;2.70;;;;;;;2.02;73.04;100337.05;1814045;78;21202;-73
2023/01/04 03:09:07;;;;;;;4.78;2.70;;;;;;;2.02;73.11;100338.36;1804319;79;20970;-73
2023/01/04 03:15:00;;;;;;;4.45;2.80;;;;;;;1.96;73.22;100338.28;1782699;79;21037;-73
2023/01/04 03:17:30;;;;;;;3.47;2.67;;;;;;;1.96;73.30;100335.66;1786266;79;21098;-74
2023/01/04 03:19:58;;;;;;;4.28;2.60;;;;;;;1.96;73.31;100338.28;1823840;78;22005;-72
2023/01/04 03:37:06;;;;;;;6.15;2.70;;;;;;;1.88;73.72;100339.73;1783469;79;20995;-71
2023/01/04 03:48:49;;;;;;;4.62;2.72;;;;;;;1.82;74.13;100347.98;1802075;79;20994;-70
2023/01/04 03:51:20;;;;;;;3.77;2.85;;;;;;;1.79;74.22;100347.69;1775726;80;20943;-73
2023/01/04 03:54:04;;;;;;;5.05;2.90;;;;;;;1.81;74.23;100347.59;1798213;79;21484;-72
2023/01/04 03:56:32;;;;;;;4.47;3.37;;;;;;;1.77;74.35;100350.88;1833705;78;21016;-75
2023/01/04 03:58:59;;;;;;;4.33;2.87;;;;;;;1.79;74.42;100353.41;1833981;77;20999;-75
2023/01/04 04:01:25;;;;;;;4.87;2.85;;;;;;;1.74;74.53;100357.16;1837125;78;21387;-74
2023/01/04 04:09:22;;;;;;;4.50;3.15;;;;;;;1.74;74.77;100351.09;1777100;80;20974;-73
2023/01/04 04:11:49;;;;;;;5.20;3.00;;;;;;;1.71;74.86;100350.79;1794329;78;21042;-71
2023/01/04 04:14:15;;;;;;;4.37;2.87;;;;;;;1.75;74.93;100353.59;1825673;78;21543;-71
2023/01/04 04:16:42;;;;;;;6.47;2.77;;;;;;;1.72;75.01;100356.42;1732810;81;21055;-73
2023/01/04 04:19:08;;;;;;;6.85;3.50;;;;;;;1.75;75.06;100361.45;1745206;80;21077;-72
2023/01/04 04:21:35;;;;;;;3.77;2.72;;;;;;;1.76;75.15;100360.52;1773666;80;21038;-71
2023/01/04 04:24:01;;;;;;;5.30;3.33;;;;;;;1.79;75.17;100358.16;1775399;80;21019;-72
2023/01/04 04:26:28;;;;;;;4.78;3.27;;;;;;;1.84;75.15;100351.34;1775230;80;21497;-72
2023/01/04 04:28:54;;;;;;;5.20;2.77;;;;;;;1.86;75.08;100358.64;1707350;82;21009;-72
2023/01/04 04:31:24;;;;;;;4.40;3.00;;;;;;;1.92;75.00;100356.94;1747253;82;21076;-74
2023/01/04 04:33:50;;;;;;;9.95;3.80;;;;;;;1.93;74.97;100358.59;1735877;78;20986;-73
2023/01/04 04:36:17;;;;;;;5.10;3.58;;;;;;;1.99;74.91;100360.86;1778117;79;20945;-72
2023/01/04 04:38:43;;;;;;;5.15;3.50;;;;;;;2.00;74.81;100354.66;1777012;80;21054;-73
2023/01/04 04:43:58;;;;;;;5.60;3.90;;;;;;;2.06;74.75;100359.98;1735542;81;21045;-77
2023/01/04 04:46:27;;;;;;;4.22;3.20;;;;;;;2.03;74.77;100358.41;1755129;80;21125;-76
2023/01/04 04:48:53;;;;;;;5.65;3.25;;;;;;;2.08;74.77;100364.17;1770159;79;21053;-76
2023/01/04 04:51:21;;;;;;;6.95;3.58;;;;;;;2.07;74.84;100365.61;1774245;80;21291;-74
2023/01/04 04:53:48;;;;;;;6.40;3.45;;;;;;;2.10;74.86;100360.15;1748691;80;21479;-76
2023/01/04 04:56:14;;;;;;;5.08;3.22;;;;;;;2.11;74.91;100364.47;1751907;81;21026;-74
2023/01/04 04:58:42;;;;;;;4.70;2.92;;;;;;;2.11;74.87;100363.98;1763099;80;21050;-76
2023/01/04 05:01:09;;;;;;;3.60;2.87;;;;;;;2.24;74.75;100369.30;1774306;80;21030;-76
2023/01/04 05:03:36;;;;;;;4.87;3.33;;;;;;;2.31;74.57;100358.75;1760632;78;21747;-75
2023/01/04 05:06:04;;;;;;;6.08;3.77;;;;;;;2.30;74.49;100362.33;1721776;79;21773;-75
2023/01/04 05:08:31;;;;;;;4.62;3.35;;;;;;;2.31;74.47;100363.16;1772522;80;20974;-78
2023/01/04 05:10:59;;;;;;;4.80;3.45;;;;;;;2.31;74.40;100366.63;1781885;79;20983;-78
2023/01/04 05:13:25;;;;;;;5.20;3.37;;;;;;;2.33;74.37;100366.53;1777957;80;21065;-76
2023/01/04 05:15:54;;;;;;;7.40;3.40;;;;;;;2.37;74.32;100374.56;1758846;81;21557;-78
2023/01/04 05:18:21;;;;;;;4.95;3.30;;;;;;;2.38;74.29;100375.39;1767175;80;21030;-76
2023/01/04 05:20:48;;;;;;;5.33;3.72;;;;;;;2.40;74.20;100369.13;1754152;81;21057;-74
2023/01/04 05:23:17;;;;;;;5.97;3.25;;;;;;;2.42;73.99;100371.17;1786807;80;21057;-75
2023/01/04 05:25:43;;;;;;;3.72;3.00;;;;;;;2.42;74.04;100371.66;1783467;79;21031;-76
2023/01/04 05:28:09;;;;;;;4.85;3.75;;;;;;;2.44;73.93;100376.33;1804172;79;21856;-74
2023/01/04 05:30:49;;;;;;;4.58;3.02;;;;;;;2.43;73.97;100378.09;1783139;79;21075;-74
2023/01/04 05:33:27;;;;;;;3.87;2.80;;;;;;;2.46;73.90;100381.83;1786277;79;21559;-75
2023/01/04 05:35:55;;;;;;;6.35;3.15;;;;;;;2.62;73.64;100380.83;1789211;78;21000;-74
2023/01/04 05:38:22;;;;;;;6.05;4.28;;;;;;;2.65;73.59;100372.77;1785605;79;21522;-75
2023/01/04 05:40:49;;;;;;;5.45;3.75;;;;;;;2.63;73.43;100382.52;1772815;79;21440;-73
2023/01/04 05:43:16;;;;;;;7.35;4.35;;;;;;;2.60;73.36;100373.53;1781810;80;21049;-74
2023/01/04 05:45:43;;;;;;;7.67;3.58;;;;;;;2.58;73.32;100380.66;1786601;80;21584;-74
2023/01/04 05:48:09;;;;;;;6.90;3.25;;;;;;;2.55;73.46;100374.68;1792780;79;21750;-71
2023/01/04 05:50:38;;;;;;;8.35;3.72;;;;;;;2.56;73.45;100380.28;1813587;79;20970;-75
2023/01/04 05:53:07;;;;;;;8.00;4.03;;;;;;;2.58;73.40;100378.04;1812787;79;21641;-78
2023/01/04 05:55:34;;;;;;;6.53;3.77;;;;;;;2.59;73.43;100367.45;1769492;79;21001;-74
2023/01/04 05:58:02;;;;;;;5.33;3.62;;;;;;;2.60;73.37;100372.22;1777303;79;22472;-74
2023/01/04 06:00:28;;;;;;;5.72;3.98;;;;;;;2.62;73.42;100381.66;1793201;79;21041;-75
2023/01/04 06:02:55;;;;;;;5.60;3.08;;;;;;;2.61;73.46;100375.20;1796286;79;21025;-75
2023/01/04 06:05:24;;;;;;;8.18;4.03;;;;;;;2.75;73.29;100383.01;1806436;77;21134;-72
2023/01/04 06:07:50;;;;;;;4.60;3.58;;;;;;;2.83;73.10;100376.77;1810363;77;21092;-71
2023/01/04 06:10:17;;;;;;;5.87;4.12;;;;;;;2.82;73.03;100379.05;1782255;77;20966;-74
2023/01/04 06:12:45;;;;;;;6.03;3.90;;;;;;;2.81;72.98;100378.66;1807573;79;22038;-72
2023/01/04 06:15:12;;;;;;;7.45;4.50;;;;;;;2.77;72.96;100379.81;1810784;78;21040;-74
2023/01/04 06:17:41;;;;;;;9.18;4.37;;;;;;;2.75;73.11;100386.47;1816286;79;21070;-73
2023/01/04 06:20:09;;;;;;;6.55;3.60;;;;;;;2.73;73.16;100381.79;1819522;78;20990;-75
2023/01/04 06:22:35;;;;;;;5.67;3.60;;;;;;;2.75;73.20;100379.91;1821981;78;21045;-72
2023/01/04 06:25:02;;;;;;;5.28;3.60;;;;;;;2.74;73.12;100383.48;1820189;77;21017;-73
2023/01/04 06:27:29;;;;;;;5.72;3.85;;;;;;;2.72;73.13;100383.20;1814466;79;21057;-72
2023/01/04 06:29:55;;;;;;;6.87;3.95;;;;;;;2.71;73.30;100393.34;1780939;78;21151;-72
2023/01/04 06:32:24;;;;;;;5.58;4.35;;;;;;;2.69;73.36;100397.85;1798824;78;21037;-72
2023/01/04 06:34:51;;;;;;;6.33;3.27;;;;;;;2.68;73.47;100391.74;1802663;78;21069;-72
2023/01/04 06:37:17;;;;;;;11.60;3.42;;;;;;;2.72;73.53;100398.94;1790566;78;20982;-71
2023/01/04 06:39:43;;;;;;;4.65;3.35;;;;;;;2.88;73.27;100402.24;1807328;77;20982;-71
2023/01/04 06:42:43;;;;;;;4.65;3.40;;;;;;;2.92;73.09;100398.47;1825350;78;21103;-73
2023/01/04 06:44:38;;;;;;;7.00;3.72;;;;;;;2.91;73.15;100402.02;1806036;78;21569;-71
2023/01/04 06:47:04;;;;;;;3.70;2.95;;;;;;;2.89;73.21;100401.28;1796783;77;21477;-70
2023/01/04 06:49:32;;;;;;;6.37;3.75;;;;;;;2.88;72.90;100400.93;1809941;78;21041;-70
2023/01/04 06:51:58;;;;;;;6.33;3.75;;;;;;;2.87;73.21;100404.97;1818605;78;21037;-72
2023/01/04 06:54:25;;;;;;;5.50;3.90;;;;;;;2.83;73.41;100406.95;1792718;78;21103;-72
2023/01/04 06:56:54;;;;;;;7.72;3.80;;;;;;;2.83;73.41;100406.95;1792745;77;21448;-71
2023/01/04 06:59:20;;;;;;;6.35;4.25;;;;;;;2.84;73.41;100415.20;1805436;77;21017;-72
2023/01/04 07:01:46;;;;;;;10.50;3.65;;;;;;;2.87;73.82;100408.42;1811108;78;21079;-72
2023/01/04 07:04:13;;;;;;;8.75;3.60;;;;;;;2.87;73.82;100408.42;1802082;78;21065;-70
2023/01/04 07:06:40;;;;;;;5.83;3.17;;;;;;;3.05;73.31;100416.00;1800842;78;21145;-71
2023/01/04 07:09:06;;;;;;;7.00;3.35;;;;;;;3.13;72.98;100421.60;1782230;80;21066;-73
2023/01/04 07:11:33;;;;;;;5.22;3.72;;;;;;;3.12;73.11;100424.67;1780628;80;20994;-72
2023/01/04 07:14:00;;;;;;;5.72;4.00;;;;;;;3.13;73.03;100416.35;1778138;80;20998;-74
2023/01/04 07:16:27;;;;;;;5.40;3.67;;;;;;;3.15;72.93;100417.92;1769323;79;21533;-71
2023/01/04 07:18:53;;;;;;;8.15;4.08;;;;;;;3.13;72.69;100423.75;1772778;80;21254;-74
2023/01/04 07:21:20;;;;;;;5.45;3.87;;;;;;;3.07;72.97;100410.17;1704719;82;21062;-72
2023/01/04 07:23:47;;;;;;;5.75;3.80;;;;;;;3.07;72.97;100410.17;1711688;82;21043;-71
2023/01/04 07:26:13;;;;;;;8.30;4.12;;;;;;;3.11;73.08;100426.09;1705032;82;21562;-73
2023/01/04 07:31:25;;;;;;;5.58;3.72;;;;;;;3.37;72.28;100426.13;1729417;82;21249;-71
2023/01/04 07:33:51;;;;;;;5.12;3.02;;;;;;;3.37;72.28;100426.13;1698800;82;21047;-72
2023/01/04 07:36:17;;;;;;;7.75;4.50;;;;;;;3.35;72.23;100432.30;1743220;81;20955;-70
2023/01/04 07:38:44;;;;;;;5.25;3.62;;;;;;;3.32;72.19;100429.05;1745563;81;20963;-70
2023/01/04 07:41:11;;;;;;;6.22;4.05;;;;;;;3.29;72.38;100434.05;1700160;82;21029;-71
2023/01/04 07:43:37;;;;;;;5.55;3.95;;;;;;;3.29;72.38;100434.05;1741872;82;21158;-72
2023/01/04 07:46:04;;;;;;;8.35;3.72;;;;;;;3.22;72.16;100422.27;1742698;82;21043;-71
2023/01/04 07:48:31;;;;;;;10.93;3.52;;;;;;;3.34;72.44;100434.58;1733979;82;21022;-73
2023/01/04 07:50:57;;;;;;;5.17;3.47;;;;;;;3.34;72.44;100434.58;1729515;81;21027;-71
2023/01/04 07:53:24;;;;;;;6.70;4.00;;;;;;;3.50;72.23;100432.22;1701521;83;21086;-71
2023/01/04 07:55:57;;;;;;;6.78;3.98;;;;;;;3.53;72.09;100439.42;1703193;83;21813;-71
2023/01/04 07:58:24;;;;;;;7.50;4.40;;;;;;;3.52;72.45;100436.89;1708207;82;22172;-71
2023/01/04 08:00:51;;;;;;;7.75;4.58;;;;;;;3.49;72.11;100431.36;1726430;82;21099;-68
2023/01/04 08:03:18;;;;;;;5.90;3.90;;;;;;;3.49;72.11;100431.36;1717768;81;21057;-72
2023/01/04 08:05:45;;;;;;;7.72;4.37;;;;;;;3.49;72.17;100429.21;1703531;82;21061;-70
2023/01/04 08:08:13;;;;;;;7.42;4.00;;;;;;;3.49;72.17;100433.98;1750849;79;21031;-72
2023/01/04 08:10:39;;;;;;;6.28;3.65;;;;;;;3.47;72.29;100431.11;1746820;81;21002;-70
2023/01/04 08:13:08;;;;;;;5.22;3.22;;;;;;;3.54;72.45;100435.00;1733051;82;21110;-69
2023/01/04 08:15:35;;;;;;;6.70;3.42;;;;;;;3.71;72.25;100438.61;1743864;80;21042;-71
2023/01/04 08:18:02;;;;;;;5.97;3.30;;;;;;;3.78;72.07;100447.37;1748951;80;21074;-71
2023/01/04 08:20:29;;;;;;;6.28;3.70;;;;;;;3.78;71.97;100451.31;1721275;80;21825;-71
2023/01/04 08:22:55;;;;;;;8.28;4.03;;;;;;;3.74;71.94;100446.26;1736579;80;20991;-75
2023/01/04 08:25:22;;;;;;;6.05;3.65;;;;;;;3.66;72.17;100449.91;1748214;80;21595;-72
2023/01/04 08:27:49;;;;;;;7.87;3.85;;;;;;;3.66;72.17;100449.91;1745201;80;21169;-72
2023/01/04 08:30:15;;;;;;;6.35;4.10;;;;;;;3.66;72.27;100459.09;1738262;81;21003;-72
2023/01/04 08:32:42;;;;;;;4.65;3.62;;;;;;;3.65;72.32;100454.80;1747020;81;21420;-72
2023/01/04 08:35:09;;;;;;;5.80;3.37;;;;;;;3.63;72.36;100451.45;1748366;80;21557;-72
2023/01/04 08:37:36;;;;;;;5.37;3.90;;;;;;;3.68;72.44;100453.27;1745015;81;21046;-75
2023/01/04 08:40:03;;;;;;;6.75;4.05;;;;;;;3.78;72.32;100449.52;1737545;82;21022;-74
2023/01/04 08:42:30;;;;;;;7.83;4.17;;;;;;;3.72;72.46;100457.36;1772825;81;21765;-76
2023/01/04 08:44:57;;;;;;;8.20;4.97;;;;;;;3.72;72.46;100457.36;1751648;80;21104;-76
2023/01/04 08:47:23;;;;;;;6.55;4.45;;;;;;;3.63;72.55;100443.56;1759453;80;21072;-76
2023/01/04 08:49:50;;;;;;;7.12;4.75;;;;;;;3.67;72.70;100452.05;1766726;79;21062;-74
2023/01/04 08:52:16;;;;;;;7.87;5.05;;;;;;;3.64;72.92;100449.17;1819530;78;21025;-75
2023/01/04 08:54:45;;;;;;;6.40;3.92;;;;;;;3.62;72.92;100455.01;1812933;79;21013;-74
2023/01/04 08:57:13;;;;;;;7.58;4.35;;;;;;;3.81;72.80;100458.52;1800759;78;21140;-75
2023/01/04 08:59:40;;;;;;;10.63;4.15;;;;;;;3.87;72.49;100453.30;1826287;78;21290;-74
2023/01/04 09:02:21;;;;;;;10.68;6.08;;;;;;;3.87;72.49;100453.30;1814946;78;21021;-75
2023/01/04 09:04:48;;;;;;;9.55;4.87;;;;;;;3.86;72.45;100451.61;1783458;77;21046;-77
2023/01/04 09:07:15;;;;;;;7.28;5.25;;;;;;;3.89;72.47;100452.24;1790430;77;21081;-80
2023/01/04 09:09:43;;;;;;;6.50;4.45;;;;;;;3.93;72.32;100452.39;1769896;79;21199;-80
2023/01/04 09:12:11;;;;;;;13.30;4.78;;;;;;;3.97;72.25;100454.33;1797032;78;20982;-80
2023/01/04 09:14:38;;;;;;;6.58;4.50;;;;;;;3.97;72.25;100454.33;1777362;79;21018;-80
2023/01/04 09:17:05;;;;;;;7.83;3.90;;;;;;;3.95;72.52;100465.44;1786769;80;20935;-83
2023/01/04 09:19:35;;;;;;;6.58;3.87;;;;;;;3.93;72.93;100456.81;1786123;79;21036;-80
2023/01/04 09:22:02;;;;;;;7.55;4.28;;;;;;;4.02;73.32;100461.43;1813580;79;21807;-80
2023/01/04 09:24:33;;;;;;;6.28;4.00;;;;;;;4.20;73.49;100461.08;1806068;79;21033;-81
2023/01/04 09:27:00;;;;;;;10.53;5.20;;;;;;;4.22;73.55;100468.38;1781689;79;21058;-80
2023/01/04 09:29:28;;;;;;;6.80;4.95;;;;;;;4.20;73.66;100466.33;1801500;78;21553;-84
2023/01/04 09:31:54;;;;;;;8.70;5.25;;;;;;;4.22;74.24;100463.12;1781564;78;21006;-80
2023/01/04 09:34:21;;;;;;;8.63;4.97;;;;;;;4.21;74.31;100459.66;1803117;79;21664;-78
2023/01/04 09:36:48;;;;;;;9.10;5.10;;;;;;;4.16;74.33;100455.19;1805997;78;21021;-80
2023/01/04 09:39:15;;;;;;;7.35;5.28;;;;;;;4.14;74.36;100451.83;1757959;80;20986;-81
2023/01/04 09:41:53;;;;;;;14.98;6.60;;;;;;;4.13;74.71;100445.73;1776604;78;20993;-77
2023/01/04 09:44:34;;;;;;;7.60;4.42;;;;;;;4.12;74.80;100447.16;1787799;79;21014;-76
2023/01/04 09:47:09;;;;;;;9.53;4.37;;;;;;;4.16;74.48;100445.15;1785474;78;21119;-75
2023/01/04 09:49:53;;;;;;;7.17;4.85;;;;;;;4.27;74.53;100447.37;1795632;79;21005;-77
2023/01/04 09:52:35;;;;;;;8.78;4.42;;;;;;;4.16;74.85;100442.04;1785029;79;21010;-77
2023/01/04 09:55:06;;;;;;;6.95;4.87;;;;;;;4.08;75.24;100440.44;1795862;79;21085;-76
2023/01/04 09:57:40;;;;;;;9.33;6.12;;;;;;;4.08;75.24;100440.44;1791021;79;21077;-78
2023/01/04 10:00:27;;;;;;;11.75;6.33;;;;;;;3.99;75.64;100439.77;1784642;79;21236;-77
2023/01/04 10:03:06;;;;;;;12.45;7.10;;;;;;;3.99;75.64;100439.77;1788299;79;21021;-73
2023/01/04 10:05:33;;;;;;;13.43;6.80;;;;;;;3.98;76.35;100442.02;1789156;78;21025;-76
2023/01/04 10:08:01;;;;;;;10.28;7.20;;;;;;;4.04;76.47;100445.07;1811247;78;20989;-76
2023/01/04 10:11:05;;;;;;;8.10;6.08;;;;;;;4.20;76.57;100445.30;1821577;77;20923;-77
2023/01/04 10:13:46;;;;;;;6.55;4.75;;;;;;;4.22;76.61;100444.22;1795067;78;21126;-77
2023/01/04 10:16:18;;;;;;;5.65;3.62;;;;;;;4.20;77.03;100436.92;1798830;78;21042;-77
2023/01/04 10:19:01;;;;;;;6.17;3.60;;;;;;;4.19;76.98;100443.59;1789708;80;21017;-76
2023/01/04 10:21:37;;;;;;;4.47;3.47;;;;;;;4.12;77.15;100446.67;1785290;78;21682;-76
2023/01/04 10:24:32;;;;;;;4.67;3.35;;;;;;;4.05;77.42;100447.22;1822452;78;21037;-77
2023/01/04 10:27:08;;;;;;;8.80;3.33;;;;;;;4.05;77.42;100447.22;1819761;78;21115;-77
2023/01/04 10:29:41;;;;;;;3.80;3.05;;;;;;;4.07;78.06;100444.00;1821822;77;21064;-77
2023/01/04 10:32:38;;;;;;;4.15;2.77;;;;;;;4.00;78.30;100437.04;1769578;80;21014;-76
2023/01/04 10:35:24;;;;;;;3.67;2.90;;;;;;;4.04;78.29;100437.19;1800565;78;21592;-78
2023/01/04 10:37:58;;;;;;;3.80;2.50;;;;;;;4.06;78.23;100437.08;1816984;77;21044;-75
2023/01/04 10:40:27;;;;;;;4.70;2.47;;;;;;;4.04;78.23;100439.81;1823111;77;21222;-76
2023/01/04 10:43:20;;;;;;;5.00;2.92;;;;;;;4.02;77.99;100439.08;1821628;77;21505;-74
2023/01/04 10:46:05;;;;;;;3.85;2.60;;;;;;;4.12;78.03;100441.41;1750771;81;21545;-75
2023/01/04 10:48:58;;;;;;;3.08;2.37;;;;;;;4.13;78.15;100444.42;1761095;80;21026;-74
2023/01/04 10:51:56;;;;;;;3.60;2.50;;;;;;;4.08;78.16;100441.27;1681190;83;21758;-74
2023/01/04 10:54:47;;;;;;;5.75;2.33;;;;;;;4.02;78.47;100443.03;1671132;84;21781;-73
2023/01/04 10:57:32;;;;;;;4.45;2.40;;;;;;;3.88;78.42;100450.58;1742973;80;21601;-75
2023/01/04 11:00:09;;;;;;;5.03;2.22;;;;;;;3.80;78.83;100446.31;1765115;81;21039;-73
2023/01/04 11:03:06;;;;;;;2.80;1.92;;;;;;;3.82;78.83;100434.38;1759612;80;21072;-73
2023/01/04 11:05:40;;;;;;;2.55;2.08;;;;;;;3.85;79.19;100439.44;1726085;81;21069;-73
2023/01/04 11:08:25;;;;;;;3.87;2.33;;;;;;;3.83;79.64;100440.02;1742747;80;21261;-74
2023/01/04 11:11:09;;;;;;;4.33;2.25;;;;;;;3.85;79.95;100444.69;1763051;80;21089;-74
2023/01/04 11:13:37;;;;;;;3.90;2.40;;;;;;;3.87;79.84;100434.91;1749873;81;21094;-76
2023/01/04 11:16:05;;;;;;;2.67;2.12;;;;;;;3.89;80.18;100443.05;1731939;81;21019;-75
2023/01/04 11:18:32;;;;;;;4.90;1.90;;;;;;;3.98;80.00;100436.77;1721223;82;21045;-74
2023/01/04 11:20:59;;;;;;;3.60;2.52;;;;;;;4.09;79.71;100448.67;1729229;82;22067;-75
2023/01/04 11:23:25;;;;;;;3.30;2.37;;;;;;;4.06;79.80;100449.74;1694047;82;21062;-73
2023/01/04 11:25:55;;;;;;;5.75;2.95;;;;;;;4.08;80.25;100443.06;1733794;81;21034;-72
2023/01/04 11:28:50;;;;;;;4.58;2.98;;;;;;;4.09;80.24;100437.67;1727169;82;21057;-74
2023/01/04 11:31:28;;;;;;;3.35;2.52;;;;;;;4.15;80.59;100440.34;1716367;82;20999;-74
2023/01/04 11:34:01;;;;;;;3.58;2.35;;;;;;;4.10;80.21;100438.05;1762096;80;21308;-74
2023/01/04 11:36:35;;;;;;;3.43;2.20;;;;;;;4.20;80.32;100434.29;1763038;80;21204;-75
2023/01/04 11:39:23;;;;;;;3.50;2.02;;;;;;;4.36;80.16;100432.70;1774457;80;21026;-72
2023/01/04 11:42:03;;;;;;;4.20;2.65;;;;;;;4.43;79.77;100432.63;1809252;78;20977;-73
2023/01/04 11:44:31;;;;;;;3.83;2.83;;;;;;;4.44;79.73;100425.11;1786776;79;20958;-73
2023/01/04 11:47:16;;;;;;;3.77;2.85;;;;;;;4.47;79.10;100430.13;1775574;79;21195;-72
2023/01/04 11:49:42;;;;;;;;;;;;;;;4.45;79.10;100425.46;1782966;80;21512;-74
2023/01/04 11:52:35;;;;;;;3.65;2.47;;;;;;;4.48;78.75;100422.62;1822339;78;20175;-73
2023/01/04 11:55:29;;;;;;;3.87;2.63;;;;;;;4.64;78.73;100429.39;1787140;79;21059;-72
2023/01/04 11:58:11;;;;;;;3.55;2.77;;;;;;;4.81;78.83;100431.61;1810667;78;21485;-74
2023/01/04 12:00:41;;;;;;;3.62;2.58;;;;;;;4.97;77.91;100423.40;1809194;77;21268;-72
2023/01/04 12:03:12;;;;;;;3.87;2.72;;;;;;;5.05;77.43;100417.55;1765360;79;21009;-74
2023/01/04 12:05:40;;;;;;;3.12;2.55;;;;;;;5.10;76.95;100408.84;1812924;79;22006;-73
2023/01/04 12:08:27;;;;;;;3.30;2.47;;;;;;;5.15;76.18;100409.30;1797375;78;21009;-72
2023/01/04 12:10:59;;;;;;;3.30;2.25;;;;;;;5.13;75.80;100412.05;1809273;77;20993;-74
2023/01/04 12:13:27;;;;;;;3.30;2.70;;;;;;;5.21;75.44;100407.52;1812060;77;21185;-74
2023/01/04 12:16:12;;;;;;;4.70;1.90;;;;;;;5.36;74.91;100416.05;1798810;79;20975;-73
2023/01/04 12:18:41;;;;;;;2.83;2.20;;;;;;;5.35;74.40;100410.89;1801404;79;21049;-74
2023/01/04 12:21:21;;;;;;;4.40;2.25;;;;;;;5.29;73.67;100416.16;1793859;78;21179;-75
2023/01/04 12:23:48;;;;;;;3.83;2.65;;;;;;;5.18;73.73;100414.84;1793829;78;21014;-75
2023/01/04 12:26:15;;;;;;;2.90;1.85;;;;;;;5.08;73.59;100414.67;1791452;78;21085;-72
2023/01/04 12:28:48;;;;;;;4.58;2.35;;;;;;;4.99;73.43;100419.34;1798194;79;21069;-74
2023/01/04 12:31:26;;;;;;;4.35;2.45;;;;;;;4.91;73.52;100408.90;1776256;80;21434;-74
2023/01/04 12:34:00;;;;;;;3.00;2.20;;;;;;;4.83;73.44;100413.05;1798264;79;21070;-74
2023/01/04 12:36:42;;;;;;;3.77;2.30;;;;;;;4.81;73.63;100414.50;1776199;79;21534;-75
2023/01/04 12:39:33;;;;;;;4.15;2.90;;;;;;;4.71;73.67;100417.44;1803945;79;21278;-74
2023/01/04 12:42:02;;;;;;;5.97;3.58;;;;;;;4.51;73.91;100422.38;1819439;78;21034;-74
2023/01/04 12:44:46;;;;;;;3.75;2.80;;;;;;;4.40;74.59;100422.80;1811931;79;21002;-74
2023/01/04 12:50:19;;;;;;;4.20;2.37;;;;;;;4.24;74.72;100415.19;1798712;79;20998;-75